sensor_id;sensor_type;location;lat;lon;timestamp;P1;durP1;ratioP1;P2;durP2;ratioP2
6791;SDS011;3433;48.730;9.108;2023-04-03T00:01:40;4.83;;;3.60;;
6791;SDS011;3433;48.730;9.108;2023-04-03T00:04:29;5.40;;;4.00;;
6791;SDS011;3433;48.730;9.108;2023-04-03T00:07:16;3.73;;;3.10;;
6791;SDS011;3433;48.730;9.108;2023-04-03T00:10:05;3.87;;;3.57;;
6791;SDS011;3433;48.730;9.108;2023-04-03T00:12:54;6.63;;;3.30;;
6791;SDS011;3433;48.730;9.108;2023-04-03T00:15:42;4.40;;;3.20;;
6791;SDS011;3433;48.730;9.108;2023-04-03T00:18:30;5.53;;;3.80;;
6791;SDS011;3433;48.730;9.108;2023-04-03T00:21:19;7.60;;;3.73;;
6791;SDS011;3433;48.730;9.108;2023-04-03T00:24:06;4.10;;;3.17;;
6791;SDS011;3433;48.730;9.108;2023-04-03T00:26:54;5.00;;;3.30;;
6791;SDS011;3433;48.730;9.108;2023-04-03T00:29:41;5.33;;;3.23;;
6791;SDS011;3433;48.730;9.108;2023-04-03T00:32:28;4.33;;;3.40;;
6791;SDS011;3433;48.730;9.108;2023-04-03T00:35:16;4.47;;;3.40;;
6791;SDS011;3433;48.730;9.108;2023-04-03T00:38:05;4.43;;;3.10;;
6791;SDS011;3433;48.730;9.108;2023-04-03T00:40:53;4.60;;;3.50;;
6791;SDS011;3433;48.730;9.108;2023-04-03T00:43:40;4.03;;;3.30;;
6791;SDS011;3433;48.730;9.108;2023-04-03T00:46:27;5.80;;;3.53;;
6791;SDS011;3433;48.730;9.108;2023-04-03T00:49:14;5.70;;;3.70;;
6791;SDS011;3433;48.730;9.108;2023-04-03T00:52:02;7.10;;;3.57;;
6791;SDS011;3433;48.730;9.108;2023-04-03T00:54:54;3.93;;;3.30;;
6791;SDS011;3433;48.730;9.108;2023-04-03T00:57:45;4.27;;;3.40;;
6791;SDS011;3433;48.730;9.108;2023-04-03T01:00:33;4.70;;;3.43;;
6791;SDS011;3433;48.730;9.108;2023-04-03T01:03:22;3.90;;;2.90;;
6791;SDS011;3433;48.730;9.108;2023-04-03T01:06:10;6.33;;;3.43;;
6791;SDS011;3433;48.730;9.108;2023-04-03T01:08:58;3.47;;;3.17;;
6791;SDS011;3433;48.730;9.108;2023-04-03T01:11:48;4.03;;;3.73;;
6791;SDS011;3433;48.730;9.108;2023-04-03T01:14:35;9.20;;;3.57;;
6791;SDS011;3433;48.730;9.108;2023-04-03T01:21:07;6.73;;;3.30;;
6791;SDS011;3433;48.730;9.108;2023-04-03T01:24:26;4.70;;;3.80;;
6791;SDS011;3433;48.730;9.108;2023-04-03T01:27:20;4.83;;;3.93;;
6791;SDS011;3433;48.730;9.108;2023-04-03T01:30:07;4.13;;;3.60;;
6791;SDS011;3433;48.730;9.108;2023-04-03T01:32:57;4.57;;;3.20;;
6791;SDS011;3433;48.730;9.108;2023-04-03T01:35:44;5.63;;;4.20;;
6791;SDS011;3433;48.730;9.108;2023-04-03T01:38:33;5.03;;;3.30;;
6791;SDS011;3433;48.730;9.108;2023-04-03T01:41:20;3.87;;;3.30;;
6791;SDS011;3433;48.730;9.108;2023-04-03T01:44:08;4.10;;;3.80;;
6791;SDS011;3433;48.730;9.108;2023-04-03T01:46:56;5.63;;;3.60;;
6791;SDS011;3433;48.730;9.108;2023-04-03T01:49:45;4.57;;;3.80;;
6791;SDS011;3433;48.730;9.108;2023-04-03T01:52:32;3.73;;;3.43;;
6791;SDS011;3433;48.730;9.108;2023-04-03T01:55:19;6.20;;;3.73;;
6791;SDS011;3433;48.730;9.108;2023-04-03T01:58:07;4.70;;;3.97;;
6791;SDS011;3433;48.730;9.108;2023-04-03T02:00:54;4.00;;;3.50;;
6791;SDS011;3433;48.730;9.108;2023-04-03T02:03:41;5.80;;;3.80;;
6791;SDS011;3433;48.730;9.108;2023-04-03T02:06:30;4.43;;;3.20;;
6791;SDS011;3433;48.730;9.108;2023-04-03T02:09:17;5.93;;;3.90;;
6791;SDS011;3433;48.730;9.108;2023-04-03T02:12:05;8.60;;;3.57;;
6791;SDS011;3433;48.730;9.108;2023-04-03T02:14:53;5.03;;;3.50;;
6791;SDS011;3433;48.730;9.108;2023-04-03T02:17:40;3.70;;;3.40;;
6791;SDS011;3433;48.730;9.108;2023-04-03T02:20:30;5.40;;;3.97;;
6791;SDS011;3433;48.730;9.108;2023-04-03T02:23:19;6.40;;;3.70;;
6791;SDS011;3433;48.730;9.108;2023-04-03T02:26:07;4.63;;;3.60;;
6791;SDS011;3433;48.730;9.108;2023-04-03T02:28:56;5.13;;;3.20;;
6791;SDS011;3433;48.730;9.108;2023-04-03T02:31:43;3.73;;;3.33;;
6791;SDS011;3433;48.730;9.108;2023-04-03T02:34:31;7.00;;;4.30;;
6791;SDS011;3433;48.730;9.108;2023-04-03T02:37:18;4.00;;;2.97;;
6791;SDS011;3433;48.730;9.108;2023-04-03T02:40:07;4.03;;;3.57;;
6791;SDS011;3433;48.730;9.108;2023-04-03T02:42:56;5.50;;;3.23;;
6791;SDS011;3433;48.730;9.108;2023-04-03T02:45:44;4.33;;;3.67;;
6791;SDS011;3433;48.730;9.108;2023-04-03T02:48:31;3.50;;;3.20;;
6791;SDS011;3433;48.730;9.108;2023-04-03T02:51:18;6.17;;;3.73;;
6791;SDS011;3433;48.730;9.108;2023-04-03T02:54:06;3.87;;;3.37;;
6791;SDS011;3433;48.730;9.108;2023-04-03T02:56:54;3.83;;;3.17;;
6791;SDS011;3433;48.730;9.108;2023-04-03T02:59:41;4.63;;;3.50;;
6791;SDS011;3433;48.730;9.108;2023-04-03T03:02:29;4.73;;;3.53;;
6791;SDS011;3433;48.730;9.108;2023-04-03T03:05:16;5.37;;;3.43;;
6791;SDS011;3433;48.730;9.108;2023-04-03T03:08:04;4.10;;;3.70;;
6791;SDS011;3433;48.730;9.108;2023-04-03T03:10:51;5.73;;;3.57;;
6791;SDS011;3433;48.730;9.108;2023-04-03T03:13:39;4.90;;;3.83;;
6791;SDS011;3433;48.730;9.108;2023-04-03T03:16:26;5.23;;;3.60;;
6791;SDS011;3433;48.730;9.108;2023-04-03T03:19:14;3.90;;;3.60;;
6791;SDS011;3433;48.730;9.108;2023-04-03T03:22:01;4.40;;;4.00;;
6791;SDS011;3433;48.730;9.108;2023-04-03T03:24:48;5.70;;;4.27;;
6791;SDS011;3433;48.730;9.108;2023-04-03T03:27:35;5.30;;;4.13;;
6791;SDS011;3433;48.730;9.108;2023-04-03T03:30:24;4.50;;;3.50;;
6791;SDS011;3433;48.730;9.108;2023-04-03T03:33:11;6.27;;;3.77;;
6791;SDS011;3433;48.730;9.108;2023-04-03T03:35:58;4.00;;;3.60;;
6791;SDS011;3433;48.730;9.108;2023-04-03T03:38:46;4.43;;;3.77;;
6791;SDS011;3433;48.730;9.108;2023-04-03T03:41:33;6.13;;;3.40;;
6791;SDS011;3433;48.730;9.108;2023-04-03T03:44:20;4.03;;;3.47;;
6791;SDS011;3433;48.730;9.108;2023-04-03T03:47:09;4.67;;;3.23;;
6791;SDS011;3433;48.730;9.108;2023-04-03T03:49:57;4.13;;;3.50;;
6791;SDS011;3433;48.730;9.108;2023-04-03T03:52:44;3.87;;;3.47;;
6791;SDS011;3433;48.730;9.108;2023-04-03T03:55:31;4.97;;;3.30;;
6791;SDS011;3433;48.730;9.108;2023-04-03T03:58:18;3.77;;;3.43;;
6791;SDS011;3433;48.730;9.108;2023-04-03T04:01:06;5.20;;;3.53;;
6791;SDS011;3433;48.730;9.108;2023-04-03T04:03:54;4.63;;;3.30;;
6791;SDS011;3433;48.730;9.108;2023-04-03T04:06:42;5.00;;;3.67;;
6791;SDS011;3433;48.730;9.108;2023-04-03T04:09:29;4.57;;;3.60;;
6791;SDS011;3433;48.730;9.108;2023-04-03T04:12:16;5.07;;;3.23;;
6791;SDS011;3433;48.730;9.108;2023-04-03T04:15:03;4.60;;;3.27;;
6791;SDS011;3433;48.730;9.108;2023-04-03T04:17:51;3.80;;;3.50;;
6791;SDS011;3433;48.730;9.108;2023-04-03T04:20:40;4.10;;;3.33;;
6791;SDS011;3433;48.730;9.108;2023-04-03T04:23:27;3.80;;;3.50;;
6791;SDS011;3433;48.730;9.108;2023-04-03T04:26:14;4.23;;;3.27;;
6791;SDS011;3433;48.730;9.108;2023-04-03T04:29:02;3.30;;;2.77;;
6791;SDS011;3433;48.730;9.108;2023-04-03T04:31:49;10.33;;;3.50;;
6791;SDS011;3433;48.730;9.108;2023-04-03T04:34:36;4.80;;;3.13;;
6791;SDS011;3433;48.730;9.108;2023-04-03T04:37:25;5.45;;;3.85;;
6791;SDS011;3433;48.730;9.108;2023-04-03T04:40:12;3.50;;;3.20;;
6791;SDS011;3433;48.730;9.108;2023-04-03T04:42:59;5.20;;;3.30;;
6791;SDS011;3433;48.730;9.108;2023-04-03T04:45:47;3.23;;;2.93;;
6791;SDS011;3433;48.730;9.108;2023-04-03T04:48:34;3.97;;;3.30;;
6791;SDS011;3433;48.730;9.108;2023-04-03T04:51:21;3.33;;;3.03;;
6791;SDS011;3433;48.730;9.108;2023-04-03T04:54:10;3.50;;;3.20;;
6791;SDS011;3433;48.730;9.108;2023-04-03T04:56:57;6.30;;;3.40;;
6791;SDS011;3433;48.730;9.108;2023-04-03T04:59:44;3.73;;;3.00;;
6791;SDS011;3433;48.730;9.108;2023-04-03T05:02:32;3.83;;;3.10;;
6791;SDS011;3433;48.730;9.108;2023-04-03T05:05:19;4.17;;;3.13;;
6791;SDS011;3433;48.730;9.108;2023-04-03T05:08:06;5.27;;;3.13;;
6791;SDS011;3433;48.730;9.108;2023-04-03T05:10:55;4.53;;;2.27;;
6791;SDS011;3433;48.730;9.108;2023-04-03T05:13:42;4.83;;;3.57;;
6791;SDS011;3433;48.730;9.108;2023-04-03T05:16:30;3.97;;;3.03;;
6791;SDS011;3433;48.730;9.108;2023-04-03T05:19:17;4.03;;;3.20;;
6791;SDS011;3433;48.730;9.108;2023-04-03T05:22:04;4.30;;;3.20;;
6791;SDS011;3433;48.730;9.108;2023-04-03T05:24:51;2.90;;;2.70;;
6791;SDS011;3433;48.730;9.108;2023-04-03T05:27:40;5.63;;;3.27;;
6791;SDS011;3433;48.730;9.108;2023-04-03T05:30:27;3.87;;;3.33;;
6791;SDS011;3433;48.730;9.108;2023-04-03T05:33:14;3.20;;;2.90;;
6791;SDS011;3433;48.730;9.108;2023-04-03T05:36:02;3.40;;;2.77;;
6791;SDS011;3433;48.730;9.108;2023-04-03T05:38:51;3.00;;;2.80;;
6791;SDS011;3433;48.730;9.108;2023-04-03T05:41:38;4.83;;;3.30;;
6791;SDS011;3433;48.730;9.108;2023-04-03T05:44:27;3.27;;;2.90;;
6791;SDS011;3433;48.730;9.108;2023-04-03T05:47:14;7.07;;;4.87;;
6791;SDS011;3433;48.730;9.108;2023-04-03T05:50:01;8.07;;;4.10;;
6791;SDS011;3433;48.730;9.108;2023-04-03T05:52:49;5.20;;;3.30;;
6791;SDS011;3433;48.730;9.108;2023-04-03T05:55:39;5.03;;;3.37;;
6791;SDS011;3433;48.730;9.108;2023-04-03T05:58:26;4.77;;;3.23;;
6791;SDS011;3433;48.730;9.108;2023-04-03T06:01:14;4.70;;;3.10;;
6791;SDS011;3433;48.730;9.108;2023-04-03T06:04:02;2.83;;;2.63;;
6791;SDS011;3433;48.730;9.108;2023-04-03T06:06:50;3.60;;;3.10;;
6791;SDS011;3433;48.730;9.108;2023-04-03T06:09:38;3.33;;;2.77;;
6791;SDS011;3433;48.730;9.108;2023-04-03T06:12:26;3.30;;;3.00;;
6791;SDS011;3433;48.730;9.108;2023-04-03T06:15:14;4.20;;;3.27;;
6791;SDS011;3433;48.730;9.108;2023-04-03T06:18:04;5.60;;;3.30;;
6791;SDS011;3433;48.730;9.108;2023-04-03T06:20:51;4.63;;;3.03;;
6791;SDS011;3433;48.730;9.108;2023-04-03T06:23:39;4.77;;;3.60;;
6791;SDS011;3433;48.730;9.108;2023-04-03T06:26:27;5.60;;;3.90;;
6791;SDS011;3433;48.730;9.108;2023-04-03T06:29:14;4.33;;;3.60;;
6791;SDS011;3433;48.730;9.108;2023-04-03T06:32:01;4.97;;;3.50;;
6791;SDS011;3433;48.730;9.108;2023-04-03T06:34:50;6.73;;;3.97;;
6791;SDS011;3433;48.730;9.108;2023-04-03T06:37:38;4.63;;;3.43;;
6791;SDS011;3433;48.730;9.108;2023-04-03T06:40:26;6.53;;;3.20;;
6791;SDS011;3433;48.730;9.108;2023-04-03T06:43:13;4.70;;;3.13;;
6791;SDS011;3433;48.730;9.108;2023-04-03T06:46:00;3.93;;;3.30;;
6791;SDS011;3433;48.730;9.108;2023-04-03T06:48:48;4.13;;;3.23;;
6791;SDS011;3433;48.730;9.108;2023-04-03T06:51:37;8.57;;;4.20;;
6791;SDS011;3433;48.730;9.108;2023-04-03T06:54:24;5.80;;;3.40;;
6791;SDS011;3433;48.730;9.108;2023-04-03T06:57:11;5.60;;;4.40;;
6791;SDS011;3433;48.730;9.108;2023-04-03T06:59:59;4.17;;;3.17;;
6791;SDS011;3433;48.730;9.108;2023-04-03T07:02:46;7.70;;;3.67;;
6791;SDS011;3433;48.730;9.108;2023-04-03T07:05:33;7.00;;;3.93;;
6791;SDS011;3433;48.730;9.108;2023-04-03T07:08:22;5.53;;;3.50;;
6791;SDS011;3433;48.730;9.108;2023-04-03T07:11:12;3.70;;;3.40;;
6791;SDS011;3433;48.730;9.108;2023-04-03T07:13:59;5.00;;;3.27;;
6791;SDS011;3433;48.730;9.108;2023-04-03T07:16:46;3.67;;;3.37;;
6791;SDS011;3433;48.730;9.108;2023-04-03T07:19:33;4.20;;;3.47;;
6791;SDS011;3433;48.730;9.108;2023-04-03T07:22:21;4.07;;;3.60;;
6791;SDS011;3433;48.730;9.108;2023-04-03T07:25:09;3.83;;;3.50;;
6791;SDS011;3433;48.730;9.108;2023-04-03T07:27:57;3.93;;;3.20;;
6791;SDS011;3433;48.730;9.108;2023-04-03T07:30:44;5.33;;;3.37;;
6791;SDS011;3433;48.730;9.108;2023-04-03T07:33:32;4.00;;;2.90;;
6791;SDS011;3433;48.730;9.108;2023-04-03T07:36:21;5.67;;;3.53;;
6791;SDS011;3433;48.730;9.108;2023-04-03T07:39:09;3.97;;;3.57;;
6791;SDS011;3433;48.730;9.108;2023-04-03T07:41:58;3.53;;;3.23;;
6791;SDS011;3433;48.730;9.108;2023-04-03T07:44:45;4.07;;;3.50;;
6791;SDS011;3433;48.730;9.108;2023-04-03T07:47:32;4.30;;;3.40;;
6791;SDS011;3433;48.730;9.108;2023-04-03T07:50:20;3.20;;;2.90;;
6791;SDS011;3433;48.730;9.108;2023-04-03T07:53:08;4.53;;;3.60;;
6791;SDS011;3433;48.730;9.108;2023-04-03T07:55:56;5.43;;;3.47;;
6791;SDS011;3433;48.730;9.108;2023-04-03T07:58:46;4.77;;;3.50;;
6791;SDS011;3433;48.730;9.108;2023-04-03T08:01:33;8.50;;;3.70;;
6791;SDS011;3433;48.730;9.108;2023-04-03T08:04:20;5.17;;;3.97;;
6791;SDS011;3433;48.730;9.108;2023-04-03T08:07:08;4.00;;;3.10;;
6791;SDS011;3433;48.730;9.108;2023-04-03T08:09:55;5.63;;;4.17;;
6791;SDS011;3433;48.730;9.108;2023-04-03T08:12:45;4.80;;;3.73;;
6791;SDS011;3433;48.730;9.108;2023-04-03T08:15:33;4.77;;;3.37;;
6791;SDS011;3433;48.730;9.108;2023-04-03T08:18:21;7.13;;;3.67;;
6791;SDS011;3433;48.730;9.108;2023-04-03T08:21:10;5.10;;;3.70;;
6791;SDS011;3433;48.730;9.108;2023-04-03T08:23:58;5.37;;;3.50;;
6791;SDS011;3433;48.730;9.108;2023-04-03T08:26:45;3.80;;;3.40;;
6791;SDS011;3433;48.730;9.108;2023-04-03T08:29:32;8.17;;;4.00;;
6791;SDS011;3433;48.730;9.108;2023-04-03T08:32:21;4.30;;;3.70;;
6791;SDS011;3433;48.730;9.108;2023-04-03T08:35:08;4.73;;;3.50;;
6791;SDS011;3433;48.730;9.108;2023-04-03T08:37:56;6.83;;;3.70;;
6791;SDS011;3433;48.730;9.108;2023-04-03T08:40:43;4.83;;;4.03;;
6791;SDS011;3433;48.730;9.108;2023-04-03T08:43:33;5.70;;;3.90;;
6791;SDS011;3433;48.730;9.108;2023-04-03T08:46:24;6.00;;;4.10;;
6791;SDS011;3433;48.730;9.108;2023-04-03T08:49:22;10.43;;;4.20;;
6791;SDS011;3433;48.730;9.108;2023-04-03T08:52:14;4.03;;;3.63;;
6791;SDS011;3433;48.730;9.108;2023-04-03T08:55:04;5.57;;;4.03;;
6791;SDS011;3433;48.730;9.108;2023-04-03T08:57:57;10.33;;;4.07;;
6791;SDS011;3433;48.730;9.108;2023-04-03T09:00:50;4.80;;;4.00;;
6791;SDS011;3433;48.730;9.108;2023-04-03T09:09:53;6.10;;;3.83;;
6791;SDS011;3433;48.730;9.108;2023-04-03T09:13:30;4.70;;;3.43;;
6791;SDS011;3433;48.730;9.108;2023-04-03T09:17:21;7.00;;;4.00;;
6791;SDS011;3433;48.730;9.108;2023-04-03T09:20:02;4.90;;;4.10;;
6791;SDS011;3433;48.730;9.108;2023-04-03T09:23:31;5.90;;;3.00;;
6791;SDS011;3433;48.730;9.108;2023-04-03T09:26:39;4.70;;;3.57;;
6791;SDS011;3433;48.730;9.108;2023-04-03T09:29:30;5.40;;;3.23;;
6791;SDS011;3433;48.730;9.108;2023-04-03T09:35:45;7.00;;;3.53;;
6791;SDS011;3433;48.730;9.108;2023-04-03T09:38:36;4.73;;;3.57;;
6791;SDS011;3433;48.730;9.108;2023-04-03T09:41:23;3.43;;;3.10;;
6791;SDS011;3433;48.730;9.108;2023-04-03T09:44:20;3.57;;;3.00;;
6791;SDS011;3433;48.730;9.108;2023-04-03T09:50:24;3.63;;;3.33;;
6791;SDS011;3433;48.730;9.108;2023-04-03T09:53:25;6.03;;;4.07;;
6791;SDS011;3433;48.730;9.108;2023-04-03T09:56:27;5.10;;;3.60;;
6791;SDS011;3433;48.730;9.108;2023-04-03T09:59:33;7.33;;;3.97;;
6791;SDS011;3433;48.730;9.108;2023-04-03T10:02:51;4.17;;;3.40;;
6791;SDS011;3433;48.730;9.108;2023-04-03T10:05:42;5.10;;;3.60;;
6791;SDS011;3433;48.730;9.108;2023-04-03T10:08:48;3.90;;;3.50;;
6791;SDS011;3433;48.730;9.108;2023-04-03T10:12:01;5.77;;;3.30;;
6791;SDS011;3433;48.730;9.108;2023-04-03T10:14:57;3.60;;;3.30;;
6791;SDS011;3433;48.730;9.108;2023-04-03T10:17:49;8.93;;;4.07;;
6791;SDS011;3433;48.730;9.108;2023-04-03T10:20:42;6.90;;;3.40;;
6791;SDS011;3433;48.730;9.108;2023-04-03T10:23:33;3.60;;;2.70;;
6791;SDS011;3433;48.730;9.108;2023-04-03T10:26:29;6.60;;;3.77;;
6791;SDS011;3433;48.730;9.108;2023-04-03T10:29:35;3.63;;;3.20;;
6791;SDS011;3433;48.730;9.108;2023-04-03T10:32:30;5.73;;;3.40;;
6791;SDS011;3433;48.730;9.108;2023-04-03T10:35:34;7.93;;;3.43;;
6791;SDS011;3433;48.730;9.108;2023-04-03T10:38:31;3.60;;;3.10;;
6791;SDS011;3433;48.730;9.108;2023-04-03T10:41:27;7.40;;;3.70;;
6791;SDS011;3433;48.730;9.108;2023-04-03T10:44:28;4.60;;;3.73;;
6791;SDS011;3433;48.730;9.108;2023-04-03T10:47:27;4.70;;;3.60;;
6791;SDS011;3433;48.730;9.108;2023-04-03T10:50:24;4.73;;;3.23;;
6791;SDS011;3433;48.730;9.108;2023-04-03T10:53:20;4.50;;;3.03;;
6791;SDS011;3433;48.730;9.108;2023-04-03T10:56:15;8.23;;;3.43;;
6791;SDS011;3433;48.730;9.108;2023-04-03T10:59:12;4.27;;;3.40;;
6791;SDS011;3433;48.730;9.108;2023-04-03T11:02:12;6.77;;;3.23;;
6791;SDS011;3433;48.730;9.108;2023-04-03T11:05:08;3.10;;;2.67;;
6791;SDS011;3433;48.730;9.108;2023-04-03T11:08:05;4.40;;;3.17;;
6791;SDS011;3433;48.730;9.108;2023-04-03T11:11:03;3.57;;;3.10;;
6791;SDS011;3433;48.730;9.108;2023-04-03T11:13:56;4.00;;;3.10;;
6791;SDS011;3433;48.730;9.108;2023-04-03T11:16:47;3.70;;;3.30;;
6791;SDS011;3433;48.730;9.108;2023-04-03T11:19:41;6.40;;;5.00;;
6791;SDS011;3433;48.730;9.108;2023-04-03T11:22:35;4.93;;;3.27;;
6791;SDS011;3433;48.730;9.108;2023-04-03T11:25:26;6.13;;;3.03;;
6791;SDS011;3433;48.730;9.108;2023-04-03T11:28:18;6.83;;;2.70;;
6791;SDS011;3433;48.730;9.108;2023-04-03T11:31:19;3.50;;;2.43;;
6791;SDS011;3433;48.730;9.108;2023-04-03T11:34:28;4.63;;;2.50;;
6791;SDS011;3433;48.730;9.108;2023-04-03T11:38:00;3.20;;;2.33;;
6791;SDS011;3433;48.730;9.108;2023-04-03T11:41:06;7.93;;;2.60;;
6791;SDS011;3433;48.730;9.108;2023-04-03T11:43:59;3.87;;;2.40;;
6791;SDS011;3433;48.730;9.108;2023-04-03T11:47:05;2.90;;;2.50;;
6791;SDS011;3433;48.730;9.108;2023-04-03T11:49:58;4.60;;;2.83;;
6791;SDS011;3433;48.730;9.108;2023-04-03T11:52:58;3.90;;;2.53;;
6791;SDS011;3433;48.730;9.108;2023-04-03T11:59:19;2.30;;;2.10;;
6791;SDS011;3433;48.730;9.108;2023-04-03T12:05:42;5.93;;;3.10;;
6791;SDS011;3433;48.730;9.108;2023-04-03T12:08:42;4.50;;;2.50;;
6791;SDS011;3433;48.730;9.108;2023-04-03T12:11:34;2.70;;;2.50;;
6791;SDS011;3433;48.730;9.108;2023-04-03T12:14:23;2.73;;;2.53;;
6791;SDS011;3433;48.730;9.108;2023-04-03T12:17:16;4.53;;;2.77;;
6791;SDS011;3433;48.730;9.108;2023-04-03T12:24:02;2.77;;;2.43;;
6791;SDS011;3433;48.730;9.108;2023-04-03T12:27:07;3.93;;;3.23;;
6791;SDS011;3433;48.730;9.108;2023-04-03T12:30:48;5.90;;;2.47;;
6791;SDS011;3433;48.730;9.108;2023-04-03T12:37:40;3.70;;;2.27;;
6791;SDS011;3433;48.730;9.108;2023-04-03T12:40:39;7.97;;;2.50;;
6791;SDS011;3433;48.730;9.108;2023-04-03T12:47:18;3.23;;;2.27;;
6791;SDS011;3433;48.730;9.108;2023-04-03T12:50:16;3.80;;;2.40;;
6791;SDS011;3433;48.730;9.108;2023-04-03T12:53:11;3.20;;;2.47;;
6791;SDS011;3433;48.730;9.108;2023-04-03T12:56:22;2.73;;;2.17;;
6791;SDS011;3433;48.730;9.108;2023-04-03T12:59:15;3.70;;;2.50;;
6791;SDS011;3433;48.730;9.108;2023-04-03T13:05:15;7.70;;;2.90;;
6791;SDS011;3433;48.730;9.108;2023-04-03T13:08:09;3.03;;;2.73;;
6791;SDS011;3433;48.730;9.108;2023-04-03T13:11:01;3.40;;;2.40;;
6791;SDS011;3433;48.730;9.108;2023-04-03T13:13:58;3.87;;;2.93;;
6791;SDS011;3433;48.730;9.108;2023-04-03T13:16:56;4.67;;;2.70;;
6791;SDS011;3433;48.730;9.108;2023-04-03T13:19:45;2.67;;;2.47;;
6791;SDS011;3433;48.730;9.108;2023-04-03T13:22:33;2.63;;;2.10;;
6791;SDS011;3433;48.730;9.108;2023-04-03T13:25:27;3.20;;;2.90;;
6791;SDS011;3433;48.730;9.108;2023-04-03T13:28:21;2.67;;;2.27;;
6791;SDS011;3433;48.730;9.108;2023-04-03T13:31:27;3.57;;;2.50;;
6791;SDS011;3433;48.730;9.108;2023-04-03T13:34:22;4.67;;;2.40;;
6791;SDS011;3433;48.730;9.108;2023-04-03T13:37:20;4.57;;;2.80;;
6791;SDS011;3433;48.730;9.108;2023-04-03T13:40:11;3.07;;;2.87;;
6791;SDS011;3433;48.730;9.108;2023-04-03T13:43:01;3.33;;;2.27;;
6791;SDS011;3433;48.730;9.108;2023-04-03T13:46:00;3.07;;;2.60;;
6791;SDS011;3433;48.730;9.108;2023-04-03T13:49:28;4.37;;;3.33;;
6791;SDS011;3433;48.730;9.108;2023-04-03T13:52:34;4.03;;;2.77;;
6791;SDS011;3433;48.730;9.108;2023-04-03T13:55:28;3.70;;;2.57;;
6791;SDS011;3433;48.730;9.108;2023-04-03T13:58:20;2.80;;;2.60;;
6791;SDS011;3433;48.730;9.108;2023-04-03T14:01:14;2.53;;;2.33;;
6791;SDS011;3433;48.730;9.108;2023-04-03T14:04:18;3.00;;;2.53;;
6791;SDS011;3433;48.730;9.108;2023-04-03T14:07:08;2.33;;;2.13;;
6791;SDS011;3433;48.730;9.108;2023-04-03T14:09:55;3.90;;;3.30;;
6791;SDS011;3433;48.730;9.108;2023-04-03T14:12:43;5.20;;;2.87;;
6791;SDS011;3433;48.730;9.108;2023-04-03T14:15:31;2.90;;;2.60;;
6791;SDS011;3433;48.730;9.108;2023-04-03T14:21:54;5.27;;;2.87;;
6791;SDS011;3433;48.730;9.108;2023-04-03T14:28:17;2.43;;;2.23;;
6791;SDS011;3433;48.730;9.108;2023-04-03T14:34:18;4.80;;;3.13;;
6791;SDS011;3433;48.730;9.108;2023-04-03T14:37:32;3.33;;;2.80;;
6791;SDS011;3433;48.730;9.108;2023-04-03T14:40:22;3.10;;;2.50;;
6791;SDS011;3433;48.730;9.108;2023-04-03T14:43:17;2.90;;;2.60;;
6791;SDS011;3433;48.730;9.108;2023-04-03T14:46:08;5.03;;;2.87;;
6791;SDS011;3433;48.730;9.108;2023-04-03T14:48:59;3.73;;;3.00;;
6791;SDS011;3433;48.730;9.108;2023-04-03T14:51:47;4.03;;;2.90;;
6791;SDS011;3433;48.730;9.108;2023-04-03T14:54:41;3.63;;;2.50;;
6791;SDS011;3433;48.730;9.108;2023-04-03T14:57:29;5.77;;;3.13;;
6791;SDS011;3433;48.730;9.108;2023-04-03T15:00:17;5.00;;;2.73;;
6791;SDS011;3433;48.730;9.108;2023-04-03T15:03:05;4.23;;;3.53;;
6791;SDS011;3433;48.730;9.108;2023-04-03T15:05:56;3.60;;;2.73;;
6791;SDS011;3433;48.730;9.108;2023-04-03T15:08:45;5.57;;;2.63;;
6791;SDS011;3433;48.730;9.108;2023-04-03T15:11:34;3.50;;;2.47;;
6791;SDS011;3433;48.730;9.108;2023-04-03T15:14:22;2.60;;;2.00;;
6791;SDS011;3433;48.730;9.108;2023-04-03T15:17:10;4.27;;;2.17;;
6791;SDS011;3433;48.730;9.108;2023-04-03T15:20:02;3.33;;;2.87;;
6791;SDS011;3433;48.730;9.108;2023-04-03T15:22:50;4.23;;;3.03;;
6791;SDS011;3433;48.730;9.108;2023-04-03T15:25:37;5.93;;;3.10;;
6791;SDS011;3433;48.730;9.108;2023-04-03T15:28:28;4.47;;;3.10;;
6791;SDS011;3433;48.730;9.108;2023-04-03T15:31:17;3.57;;;2.90;;
6791;SDS011;3433;48.730;9.108;2023-04-03T15:34:04;4.00;;;2.83;;
6791;SDS011;3433;48.730;9.108;2023-04-03T15:36:51;8.40;;;2.93;;
6791;SDS011;3433;48.730;9.108;2023-04-03T15:39:39;2.53;;;2.33;;
6791;SDS011;3433;48.730;9.108;2023-04-03T15:42:26;6.20;;;2.57;;
6791;SDS011;3433;48.730;9.108;2023-04-03T15:45:14;4.43;;;2.17;;
6791;SDS011;3433;48.730;9.108;2023-04-03T15:48:02;2.53;;;2.10;;
6791;SDS011;3433;48.730;9.108;2023-04-03T15:50:50;3.63;;;2.27;;
6791;SDS011;3433;48.730;9.108;2023-04-03T15:53:37;5.43;;;2.37;;
6791;SDS011;3433;48.730;9.108;2023-04-03T15:56:24;4.20;;;2.47;;
6791;SDS011;3433;48.730;9.108;2023-04-03T15:59:11;7.03;;;2.17;;
6791;SDS011;3433;48.730;9.108;2023-04-03T16:02:00;2.70;;;2.50;;
6791;SDS011;3433;48.730;9.108;2023-04-03T16:04:50;3.27;;;2.27;;
6791;SDS011;3433;48.730;9.108;2023-04-03T16:07:37;4.67;;;2.60;;
6791;SDS011;3433;48.730;9.108;2023-04-03T16:10:26;3.43;;;2.70;;
6791;SDS011;3433;48.730;9.108;2023-04-03T16:13:14;3.77;;;2.57;;
6791;SDS011;3433;48.730;9.108;2023-04-03T16:16:01;4.13;;;2.90;;
6791;SDS011;3433;48.730;9.108;2023-04-03T16:18:51;8.53;;;2.97;;
6791;SDS011;3433;48.730;9.108;2023-04-03T16:21:39;4.60;;;3.00;;
6791;SDS011;3433;48.730;9.108;2023-04-03T16:24:27;3.43;;;2.50;;
6791;SDS011;3433;48.730;9.108;2023-04-03T16:27:15;3.30;;;2.80;;
6791;SDS011;3433;48.730;9.108;2023-04-03T16:30:02;8.93;;;2.93;;
6791;SDS011;3433;48.730;9.108;2023-04-03T16:32:51;5.00;;;3.33;;
6791;SDS011;3433;48.730;9.108;2023-04-03T16:35:40;3.17;;;2.90;;
6791;SDS011;3433;48.730;9.108;2023-04-03T16:38:28;2.50;;;2.30;;
6791;SDS011;3433;48.730;9.108;2023-04-03T16:41:16;2.37;;;1.90;;
6791;SDS011;3433;48.730;9.108;2023-04-03T16:44:03;5.80;;;2.23;;
6791;SDS011;3433;48.730;9.108;2023-04-03T16:46:52;4.50;;;3.00;;
6791;SDS011;3433;48.730;9.108;2023-04-03T16:49:39;2.80;;;2.53;;
6791;SDS011;3433;48.730;9.108;2023-04-03T16:52:28;3.73;;;3.37;;
6791;SDS011;3433;48.730;9.108;2023-04-03T16:55:15;6.33;;;4.00;;
6791;SDS011;3433;48.730;9.108;2023-04-03T16:58:03;5.30;;;3.47;;
6791;SDS011;3433;48.730;9.108;2023-04-03T17:00:50;6.27;;;3.10;;
6791;SDS011;3433;48.730;9.108;2023-04-03T17:03:38;5.37;;;2.67;;
6791;SDS011;3433;48.730;9.108;2023-04-03T17:06:26;2.90;;;2.60;;
6791;SDS011;3433;48.730;9.108;2023-04-03T17:09:14;3.80;;;2.53;;
6791;SDS011;3433;48.730;9.108;2023-04-03T17:12:02;3.80;;;2.87;;
6791;SDS011;3433;48.730;9.108;2023-04-03T17:14:49;2.90;;;2.40;;
6791;SDS011;3433;48.730;9.108;2023-04-03T17:17:36;3.20;;;2.67;;
6791;SDS011;3433;48.730;9.108;2023-04-03T17:20:23;4.53;;;3.03;;
6791;SDS011;3433;48.730;9.108;2023-04-03T17:23:11;5.13;;;2.77;;
6791;SDS011;3433;48.730;9.108;2023-04-03T17:25:59;4.83;;;3.40;;
6791;SDS011;3433;48.730;9.108;2023-04-03T17:28:47;6.23;;;3.33;;
6791;SDS011;3433;48.730;9.108;2023-04-03T17:31:34;3.10;;;2.80;;
6791;SDS011;3433;48.730;9.108;2023-04-03T17:34:21;4.87;;;3.17;;
6791;SDS011;3433;48.730;9.108;2023-04-03T17:37:09;7.63;;;2.80;;
6791;SDS011;3433;48.730;9.108;2023-04-03T17:39:56;4.30;;;2.53;;
6791;SDS011;3433;48.730;9.108;2023-04-03T17:42:44;4.50;;;2.77;;
6791;SDS011;3433;48.730;9.108;2023-04-03T17:45:31;6.60;;;2.60;;
6791;SDS011;3433;48.730;9.108;2023-04-03T17:48:19;2.97;;;2.70;;
6791;SDS011;3433;48.730;9.108;2023-04-03T17:51:06;3.27;;;2.80;;
6791;SDS011;3433;48.730;9.108;2023-04-03T17:53:55;3.30;;;2.70;;
6791;SDS011;3433;48.730;9.108;2023-04-03T17:56:42;4.90;;;2.43;;
6791;SDS011;3433;48.730;9.108;2023-04-03T17:59:33;3.33;;;2.50;;
6791;SDS011;3433;48.730;9.108;2023-04-03T18:02:21;5.40;;;2.47;;
6791;SDS011;3433;48.730;9.108;2023-04-03T18:05:08;3.87;;;2.90;;
6791;SDS011;3433;48.730;9.108;2023-04-03T18:07:55;5.73;;;3.73;;
6791;SDS011;3433;48.730;9.108;2023-04-03T18:10:44;5.23;;;3.40;;
6791;SDS011;3433;48.730;9.108;2023-04-03T18:13:31;5.07;;;3.03;;
6791;SDS011;3433;48.730;9.108;2023-04-03T18:16:23;5.73;;;2.90;;
6791;SDS011;3433;48.730;9.108;2023-04-03T18:19:10;5.70;;;3.10;;
6791;SDS011;3433;48.730;9.108;2023-04-03T18:21:58;6.40;;;2.90;;
6791;SDS011;3433;48.730;9.108;2023-04-03T18:24:47;7.13;;;3.70;;
6791;SDS011;3433;48.730;9.108;2023-04-03T18:27:35;3.30;;;3.00;;
6791;SDS011;3433;48.730;9.108;2023-04-03T18:30:23;4.00;;;2.87;;